Weather observations for the past three days for
Togiac Village, Togiak Airport
Imperial (Metric)
Date Time (akdt) Wind (mph) Vis. (mi.) Weather Sky Cond. Temperature (ºF) Relative Humidity Wind Chill (°F) Heat Index (°F) Pressure Precipitation (in)
Air Dwpt 6 hour altimeter (in) sea level (mb) 1 hr 3 hr 6 hr
Max. Min.
05 14:56 S 6 10.00 Overcast OVC028 53.1 48.9 86% 30.07 1018.2
05 13:56 E 6 10.00 Overcast SCT021 OVC026 51.1 48.9 92% 30.08 1018.4
05 12:56 SW 6 10.00 Overcast FEW015 BKN020 OVC024 51.1 48 89% 30.07 1018.3
05 11:56 SW 7 10.00 Overcast OVC023 51.1 48 89% 30.07 1018.2
05 09:56 SW 10 10.00 Overcast OVC018 50 48.9 52 50 96% 46 30.05 1017.5
05 08:56 SW 15 10.00 Overcast OVC016 50 48.9 96% 45 30.03 1016.8
05 07:56 SW 14 4.00 Fog/Mist OVC012 50 50 100% 45 30.02 1016.6
05 06:56 SW 13 5.00 Fog/Mist OVC010 51.1 51.1 100% 30.01 1016.3
05 05:56 SW 15 6.00 Fog/Mist OVC008 51.1 51.1 100% 30 1015.9
05 04:56 SW 10 5.00 Fog/Mist BKN006 OVC011 51.1 51.1 100% 29.99 1015.5
05 03:56 S 15 5.00 Fog/Mist OVC009 51.1 51.1 53.1 50 100% 29.98 1015.3
05 02:56 S 13 10.00 Overcast OVC007 51.1 51.1 100% 29.96 1014.6
05 01:56 SW 14 10.00 Overcast OVC007 51.1 50 96% 29.94 1013.9
05 00:56 SW 21 10.00 Overcast and Breezy OVC005 51.1 51.1 100% 29.92 1013.2
04 23:56 SW 16 G 21 10.00 Overcast OVC003 52 52 100% 29.91 1012.8
04 22:56 SW 18 G 22 10.00 Overcast OVC003 52 52 100% 29.89 1012.1
04 21:56 SW 9 3.00 Fog/Mist BKN003 OVC009 53.1 53.1 54 53.1 100% 29.86 1011.1
04 20:56 S 14 1.00 Fog/Mist OVC004 53.1 53.1 100% 29.85 1010.8
04 19:56 S 8 1.25 Fog/Mist OVC004 53.1 53.1 100% 29.84 1010.3
04 18:56 S 6 1.25 Fog/Mist OVC008 54 54 100% 29.83 1010.3
04 17:56 S 6 0.75 Fog/Mist BKN004 OVC010 54 54 100% 29.84 1010.4
04 16:56 S 6 0.50 Fog OVC004 54 54 100% 29.86 1011.0
04 15:56 SE 8 0.75 Light Rain Fog/Mist OVC004 53.1 53.1 54 53.1 100% 29.86 1011.2
04 14:56 SE 3 3.00 Light Rain Fog/Mist OVC011 54 54 100% 29.86 1011.2
04 13:56 S 8 1.50 Light Rain Fog/Mist BKN009 OVC013 54 54 100% 29.87 1011.5
04 12:56 SE 9 3.00 Fog/Mist SCT004 OVC009 54 54 100% 29.88 1011.7
04 11:56 SE 8 10.00 Overcast SCT004 BKN008 OVC011 53.1 53.1 100% 29.86 1011.2
04 10:56 SE 10 1.25 Fog/Mist OVC015 53.1 53.1 100% 29.86 1011.1
04 09:56 SE 15 3.00 Fog/Mist OVC016 53.1 53.1 54 53.1 100% 29.86 1011.3
04 08:56 SE 15 4.00 Light Rain Fog/Mist BKN010 OVC015 53.1 53.1 100% 29.85 1010.9
04 07:56 SE 13 2.50 Light Rain Fog/Mist OVC010 53.1 53.1 100% 29.85 1010.9
04 06:56 SE 16 4.00 Rain Fog/Mist BKN005 OVC009 53.1 53.1 100% 29.86 1011.1
04 05:56 SE 16 3.00 Light Rain Fog/Mist BKN006 OVC010 54 54 100% 29.87 1011.4
04 04:56 SE 12 5.00 Rain Fog/Mist OVC004 54 54 100% 29.87 1011.6
04 03:56 SE 13 2.50 Rain Fog/Mist OVC006 53.1 53.1 55 53.1 100% 29.88 1011.8
04 02:56 SE 13 3.00 Light Rain Fog/Mist OVC006 53.1 53.1 100% 29.89 1012.3
04 01:56 SE 17 5.00 Light Rain Fog/Mist OVC015 54 54 100% 29.9 1012.4
04 00:56 SE 14 6.00 Light Rain Fog/Mist BKN003 BKN009 OVC015 54 54 100% 29.89 1012.3
03 23:56 SE 12 4.00 Light Rain Fog/Mist OVC003 54 54 100% 29.9 1012.3
03 22:56 SE 15 7.00 Light Rain OVC012 54 54 100% 29.9 1012.3
03 21:56 SE 16 10.00 Light Rain SCT007 OVC019 54 54 55.9 54 100% 29.9 1012.6
03 20:56 S 16 2.50 Light Rain Fog/Mist OVC005 55 55 100% 29.9 1012.6
03 19:56 S 16 1.75 Rain Fog/Mist BKN007 OVC022 55 55 100% 29.92 1013.1
03 18:56 S 6 5.00 Rain Fog/Mist OVC021 55 55 100% 29.93 1013.4
03 17:56 S 3 10.00 Light Rain BKN011 OVC015 55 55 100% 29.94 1013.7
03 16:56 SE 9 9.00 Light Rain BKN010 OVC015 55 55 100% 29.95 1014.0
03 15:56 S 8 9.00 Light Rain OVC013 55 55 55 53.1 100% 29.94 1014.0
03 14:56 S 8 5.00 Rain Fog/Mist OVC013 55 54 96% 29.95 1014.2
03 13:56 S 14 6.00 Rain Fog/Mist OVC013 55 55 100% 29.96 1014.6
03 12:56 S 10 10.00 Light Rain OVC013 54 54 100% 29.96 1014.5
03 11:56 SE 18 8.00 Light Rain OVC020 55 54 96% 29.95 1014.2
03 10:56 S 8 5.00 Light Rain Fog/Mist BKN014 OVC032 54 54 100% 29.95 1014.2
03 09:56 S 12 8.00 Light Rain FEW016 BKN035 OVC050 54 54 55 52 100% 29.96 1014.4
03 08:56 E 5 10.00 Overcast BKN016 BKN029 OVC046 54 54 100% 29.96 1014.7
03 07:56 SE 9 10.00 Overcast OVC032 54 54 100% 29.97 1014.9
03 06:56 SE 14 10.00 Overcast OVC032 54 54 100% 29.97 1014.8
03 05:56 SE 14 10.00 Overcast FEW026 BKN033 OVC042 53.1 53.1 100% 29.98 1015.1
03 04:56 SE 14 10.00 Overcast BKN014 OVC021 53.1 53.1 100% 30 1016.0
03 03:56 NE 6 4.00 Light Rain Fog/Mist OVC004 52 52 52 51.1 100% 30.01 1016.3
03 01:56 NE 5 2.00 Fog/Mist OVC004 51.1 51.1 100% 30.02 1016.7
03 00:56 NE 6 1.75 Light Rain Fog/Mist OVC004 51.1 51.1 100% 30.03 1016.7
02 23:56 E 5 5.00 Light Rain Fog/Mist OVC004 51.1 51.1 100% 30.03 1017.0
02 22:56 Calm 8.00 Overcast OVC004 51.1 51.1 100% 30.03 1016.8
02 21:56 SE 6 6.00 Light Rain Fog/Mist OVC010 52 52 53.1 51.1 100% 30.02 1016.6
02 20:56 E 7 3.00 Light Rain Fog/Mist OVC005 52 52 100% 30.03 1016.7
02 19:56 E 6 3.00 Light Rain Fog/Mist OVC005 52 52 100% 30.02 1016.6
02 18:56 SE 6 10.00 Overcast SCT007 OVC012 53.1 53.1 100% 30.03 1016.8
02 17:56 Calm 2.00 Light Rain Fog/Mist OVC003 51.1 51.1 100% 30.02 1016.6
02 16:56 NE 3 1.75 Light Rain Fog/Mist OVC005 51.1 51.1 100% 30.02 1016.7
02 15:56 SE 5 4.00 Light Rain Fog/Mist OVC011 51.1 50 51.1 48 96% 30.02 1016.4
Date Time (akdt) Wind (mph) Vis. (mi.) Weather Sky Cond. Air Dwpt Max. Min. Relative Humidity Wind Chill (°F) Heat Index (°F) altimeter (in) sea level (mb) 1 hr 3 hr 6 hr
6 hour
Temperature (ºF) Pressure Precipitation (in)